createdAt,value
2017-04-01T00:00:05.565Z,0
2017-04-01T00:00:46.081Z,0
2017-04-01T00:01:26.585Z,0
2017-04-01T00:02:07.111Z,0
2017-04-01T00:02:47.638Z,0
2017-04-01T00:03:28.141Z,0
2017-04-01T00:04:08.672Z,0
2017-04-01T00:04:49.186Z,0
2017-04-01T00:05:29.694Z,0
2017-04-01T00:06:10.217Z,0
2017-04-01T00:06:50.735Z,0
2017-04-01T00:07:31.243Z,0
2017-04-01T00:08:11.776Z,0
2017-04-01T00:08:52.293Z,0
2017-04-01T00:09:32.881Z,0
2017-04-01T00:10:13.323Z,0
2017-04-01T00:10:53.833Z,0
2017-04-01T00:11:34.357Z,0
2017-04-01T00:12:14.869Z,0
2017-04-01T00:12:55.359Z,0
2017-04-01T00:13:35.887Z,0
2017-04-01T00:14:16.399Z,0
2017-04-01T00:14:56.934Z,0
2017-04-01T00:15:37.446Z,0
2017-04-01T00:16:17.967Z,0
2017-04-01T00:16:58.470Z,0
2017-04-01T00:17:38.986Z,0
2017-04-01T00:18:19.498Z,0
2017-04-01T00:19:00.018Z,0
2017-04-01T00:19:40.538Z,0
2017-04-01T00:20:21.065Z,0
2017-04-01T00:21:01.577Z,0
2017-04-01T00:21:42.085Z,0
2017-04-01T00:22:22.617Z,0
2017-04-01T00:23:03.144Z,0
2017-04-01T00:23:43.656Z,0
2017-04-01T00:24:24.184Z,0
2017-04-01T00:25:04.702Z,0
2017-04-01T00:25:45.254Z,0
2017-04-01T00:26:25.724Z,0
2017-04-01T00:27:06.249Z,0
2017-04-01T00:27:46.760Z,0
2017-04-01T00:28:27.273Z,0
2017-04-01T00:29:07.788Z,0
2017-04-01T00:29:48.310Z,0
2017-04-01T00:30:28.829Z,0
2017-04-01T00:31:09.355Z,0
2017-04-01T00:31:49.907Z,0
2017-04-01T00:32:30.424Z,0
2017-04-01T00:33:10.933Z,0
2017-04-01T00:33:51.457Z,0
2017-04-01T00:34:31.973Z,0
2017-04-01T00:35:12.483Z,0
2017-04-01T00:35:52.996Z,0
2017-04-01T00:36:33.505Z,0
2017-04-01T00:37:14.025Z,0
2017-04-01T00:37:54.545Z,0
2017-04-01T00:38:35.051Z,0
2017-04-01T00:39:15.578Z,0
2017-04-01T00:39:56.091Z,0
2017-04-01T00:40:36.623Z,0
2017-04-01T00:41:17.155Z,0
2017-04-01T00:41:57.668Z,0
2017-04-01T00:42:38.182Z,0
2017-04-01T00:43:18.692Z,0
2017-04-01T00:43:59.198Z,0
2017-04-01T00:44:39.710Z,0
2017-04-01T00:45:20.212Z,0
2017-04-01T00:46:00.751Z,0
2017-04-01T00:46:41.231Z,0
2017-04-01T00:47:21.746Z,0
2017-04-01T00:48:02.252Z,0
2017-04-01T00:48:42.779Z,0
2017-04-01T00:49:23.285Z,0
2017-04-01T00:50:03.812Z,0
2017-04-01T00:50:44.336Z,0
2017-04-01T00:51:24.874Z,0
2017-04-01T00:52:05.404Z,0
2017-04-01T00:52:45.912Z,0
2017-04-01T00:53:26.453Z,0
2017-04-01T00:54:06.975Z,0
2017-04-01T00:54:47.488Z,0
2017-04-01T00:55:28.002Z,0
2017-04-01T00:56:08.520Z,0
2017-04-01T00:56:49.003Z,0
2017-04-01T00:57:29.500Z,0
2017-04-01T00:58:10.007Z,0
2017-04-01T00:58:50.523Z,0
2017-04-01T00:59:31.036Z,0
2017-04-01T01:00:11.549Z,0
2017-04-01T01:00:52.067Z,0
2017-04-01T01:01:32.577Z,0
2017-04-01T01:02:13.079Z,0
2017-04-01T01:02:53.594Z,0
2017-04-01T01:03:34.085Z,0
2017-04-01T01:04:14.588Z,0
2017-04-01T01:04:55.105Z,0
2017-04-01T01:05:35.634Z,0
2017-04-01T01:06:16.131Z,0
2017-04-01T01:06:56.660Z,0
2017-04-01T01:07:37.174Z,0
2017-04-01T01:08:17.676Z,0
2017-04-01T01:08:58.190Z,0
2017-04-01T01:09:38.723Z,0
2017-04-01T01:10:19.237Z,0
2017-04-01T01:10:59.765Z,0
2017-04-01T01:11:40.282Z,0
2017-04-01T01:12:20.830Z,0
2017-04-01T01:13:01.346Z,0
2017-04-01T01:13:41.864Z,0
2017-04-01T01:14:22.380Z,0
2017-04-01T01:15:02.888Z,0
2017-04-01T01:15:43.403Z,0
2017-04-01T01:16:23.926Z,0
2017-04-01T01:17:04.450Z,0
2017-04-01T01:17:44.962Z,0
2017-04-01T01:18:25.486Z,0
2017-04-01T01:19:06.023Z,0
2017-04-01T01:19:46.540Z,0
2017-04-01T01:20:27.056Z,0
2017-04-01T01:21:07.569Z,0
2017-04-01T01:21:48.106Z,0
2017-04-01T01:22:28.637Z,0
2017-04-01T01:23:09.149Z,0
2017-04-01T01:23:49.677Z,0
2017-04-01T01:24:30.186Z,0
2017-04-01T01:25:10.703Z,0
2017-04-01T01:25:51.222Z,0
2017-04-01T01:26:31.750Z,0
2017-04-01T01:27:12.283Z,0
2017-04-01T01:27:52.783Z,0
2017-04-01T01:28:33.317Z,0
2017-04-01T01:29:13.850Z,0
2017-04-01T01:29:54.370Z,0
2017-04-01T01:30:34.894Z,0
2017-04-01T01:31:15.415Z,0
2017-04-01T01:31:55.923Z,0
2017-04-01T01:32:36.442Z,0
2017-04-01T01:33:16.971Z,0
2017-04-01T01:33:57.480Z,0
2017-04-01T01:34:37.991Z,0
2017-04-01T01:35:18.529Z,0
2017-04-01T01:35:59.050Z,0
2017-04-01T01:36:39.579Z,0
2017-04-01T01:37:20.104Z,0
2017-04-01T01:38:00.628Z,0
2017-04-01T01:38:41.150Z,0
2017-04-01T01:39:21.672Z,0
2017-04-01T01:40:02.207Z,0
2017-04-01T01:40:42.721Z,0
2017-04-01T01:41:23.242Z,0
2017-04-01T01:42:03.772Z,0
2017-04-01T01:42:44.307Z,0
2017-04-01T01:43:24.800Z,0
2017-04-01T01:44:05.304Z,0
2017-04-01T01:44:45.837Z,0
2017-04-01T01:45:26.346Z,0
2017-04-01T01:46:06.845Z,0
2017-04-01T01:46:47.372Z,0
2017-04-01T01:47:27.888Z,0
2017-04-01T01:48:08.406Z,0
2017-04-01T01:48:48.918Z,0
2017-04-01T01:49:29.451Z,0
2017-04-01T01:50:09.957Z,0
2017-04-01T01:50:50.488Z,0
2017-04-01T01:51:30.992Z,0
2017-04-01T01:52:11.522Z,0
2017-04-01T01:52:52.042Z,0
2017-04-01T01:53:32.588Z,0
2017-04-01T01:54:13.081Z,0
2017-04-01T01:54:53.593Z,0
2017-04-01T01:55:34.116Z,0
2017-04-01T01:56:14.625Z,0
2017-04-01T01:56:55.142Z,0
2017-04-01T01:57:35.674Z,0
2017-04-01T01:58:16.196Z,0
2017-04-01T01:58:56.705Z,0
2017-04-01T01:59:37.218Z,0
2017-04-01T02:00:17.723Z,0
2017-04-01T02:00:58.255Z,0
2017-04-01T02:01:38.782Z,0
2017-04-01T02:02:19.309Z,0
2017-04-01T02:02:59.836Z,0
2017-04-01T02:03:40.347Z,0
2017-04-01T02:04:20.868Z,0
2017-04-01T02:05:01.390Z,0
2017-04-01T02:05:41.892Z,0
2017-04-01T02:06:22.394Z,0
2017-04-01T02:07:02.915Z,0
2017-04-01T02:07:43.430Z,0
2017-04-01T02:08:23.984Z,0
2017-04-01T02:09:04.448Z,0
2017-04-01T02:09:44.975Z,0
2017-04-01T02:10:25.498Z,0
2017-04-01T02:11:06.016Z,0
2017-04-01T02:11:46.542Z,0
2017-04-01T02:12:27.056Z,0
2017-04-01T02:13:07.588Z,0
2017-04-01T02:13:48.091Z,0
2017-04-01T02:14:28.610Z,0
2017-04-01T02:15:09.108Z,0
2017-04-01T02:15:49.623Z,0
2017-04-01T02:16:30.125Z,0
2017-04-01T02:17:10.736Z,0
2017-04-01T02:17:51.245Z,0
2017-04-01T02:18:31.750Z,0
2017-04-01T02:19:12.279Z,0
2017-04-01T02:19:52.791Z,0
2017-04-01T02:20:33.291Z,0
2017-04-01T02:21:13.807Z,0
2017-04-01T02:21:54.314Z,0
2017-04-01T02:22:34.813Z,0
2017-04-01T02:23:15.351Z,0
2017-04-01T02:23:55.856Z,0
2017-04-01T02:24:36.367Z,0
2017-04-01T02:25:16.872Z,0
2017-04-01T02:25:57.391Z,0
2017-04-01T02:26:37.914Z,0
2017-04-01T02:27:18.442Z,0
2017-04-01T02:27:58.991Z,0
2017-04-01T02:28:39.478Z,0
2017-04-01T02:29:19.980Z,0
2017-04-01T02:30:00.526Z,0
2017-04-01T02:30:41.060Z,0
2017-04-01T02:31:21.607Z,0
2017-04-01T02:32:02.114Z,0
2017-04-01T02:32:42.653Z,0
2017-04-01T02:33:23.138Z,0
2017-04-01T02:34:03.663Z,0
2017-04-01T02:34:44.191Z,0
2017-04-01T02:35:24.721Z,0
2017-04-01T02:36:05.249Z,0
2017-04-01T02:36:45.765Z,0
2017-04-01T02:37:26.283Z,0
2017-04-01T02:38:06.795Z,0
2017-04-01T02:38:47.337Z,0
2017-04-01T02:39:27.847Z,0
2017-04-01T02:40:08.348Z,0
2017-04-01T02:40:48.865Z,0
2017-04-01T02:41:29.367Z,0
2017-04-01T02:42:09.902Z,0
2017-04-01T02:42:50.402Z,0
2017-04-01T02:43:30.894Z,0
2017-04-01T02:44:11.398Z,0
2017-04-01T02:44:51.894Z,0
2017-04-01T02:45:32.410Z,0
2017-04-01T02:46:12.941Z,0
2017-04-01T02:46:53.467Z,0
2017-04-01T02:47:33.963Z,0
2017-04-01T02:48:14.493Z,0
2017-04-01T02:48:54.999Z,0
2017-04-01T02:49:35.520Z,0
2017-04-01T02:50:16.048Z,0
2017-04-01T02:50:56.557Z,0
2017-04-01T02:51:37.061Z,0
2017-04-01T02:52:17.579Z,0
2017-04-01T02:52:58.095Z,0
2017-04-01T02:53:38.610Z,0
2017-04-01T02:54:19.102Z,0
2017-04-01T02:54:59.620Z,0
2017-04-01T02:55:40.151Z,0
2017-04-01T02:56:20.681Z,0
2017-04-01T02:57:01.194Z,0
2017-04-01T02:57:41.715Z,0
2017-04-01T02:58:22.230Z,0
2017-04-01T02:59:02.749Z,0
2017-04-01T02:59:43.281Z,0
2017-04-01T03:00:23.782Z,0
2017-04-01T03:01:04.307Z,0
2017-04-01T03:01:44.832Z,0
2017-04-01T03:02:25.344Z,0
2017-04-01T03:03:05.837Z,0
2017-04-01T03:03:46.370Z,0
2017-04-01T03:04:26.892Z,0
2017-04-01T03:05:07.400Z,0
2017-04-01T03:05:47.917Z,0
2017-04-01T03:06:28.442Z,0
2017-04-01T03:07:08.951Z,0
2017-04-01T03:07:49.462Z,0
2017-04-01T03:08:29.973Z,0
2017-04-01T03:09:10.500Z,0
2017-04-01T03:09:51.048Z,0
2017-04-01T03:10:31.530Z,0
2017-04-01T03:11:12.052Z,0
2017-04-01T03:11:52.579Z,0
2017-04-01T03:12:33.079Z,0
2017-04-01T03:13:13.599Z,0
2017-04-01T03:13:54.128Z,0
2017-04-01T03:14:34.642Z,0
2017-04-01T03:15:15.144Z,0
2017-04-01T03:15:55.664Z,0
2017-04-01T03:16:36.193Z,0
2017-04-01T03:17:16.722Z,0
2017-04-01T03:17:57.209Z,0
2017-04-01T03:18:37.719Z,0
2017-04-01T03:19:18.233Z,0
2017-04-01T03:19:58.752Z,0
2017-04-01T03:20:39.275Z,0
2017-04-01T03:21:19.792Z,0
2017-04-01T03:22:00.319Z,0
2017-04-01T03:22:40.845Z,0
2017-04-01T03:23:21.353Z,0
2017-04-01T03:24:01.881Z,0
2017-04-01T03:24:42.398Z,0
2017-04-01T03:25:22.915Z,0
2017-04-01T03:26:03.441Z,0
2017-04-01T03:26:43.966Z,0
2017-04-01T03:27:24.474Z,0
2017-04-01T03:28:05.048Z,0
2017-04-01T03:28:45.503Z,0
2017-04-01T03:29:26.052Z,0
2017-04-01T03:30:06.515Z,0
2017-04-01T03:30:47.065Z,0
2017-04-01T03:31:27.596Z,0
2017-04-01T03:32:08.138Z,0
2017-04-01T03:32:48.652Z,0
2017-04-01T03:33:29.255Z,0
2017-04-01T03:34:09.813Z,0
2017-04-01T03:34:50.394Z,0
2017-04-01T03:35:31.746Z,0
2017-04-01T03:36:12.280Z,0
2017-04-01T03:36:52.847Z,0
2017-04-01T03:37:33.345Z,0
2017-04-01T03:38:13.899Z,0
2017-04-01T03:38:54.397Z,0
2017-04-01T03:39:34.881Z,0
2017-04-01T03:40:15.363Z,0
2017-04-01T03:40:55.867Z,0
2017-04-01T03:41:36.420Z,0
2017-04-01T03:42:16.914Z,0
2017-04-01T03:42:57.495Z,0
2017-04-01T03:43:37.982Z,0
2017-04-01T03:44:18.591Z,0
2017-04-01T03:44:59.132Z,0
2017-04-01T03:45:39.709Z,0
2017-04-01T03:46:20.220Z,0
2017-04-01T03:47:00.811Z,0
2017-04-01T03:47:41.363Z,0
2017-04-01T03:48:21.953Z,0
2017-04-01T03:49:02.484Z,0
2017-04-01T03:49:43.063Z,0
2017-04-01T03:50:23.582Z,0
2017-04-01T03:51:04.146Z,0
2017-04-01T03:51:44.616Z,0
2017-04-01T03:52:25.145Z,0
2017-04-01T03:53:05.650Z,0
2017-04-01T03:53:46.224Z,0
2017-04-01T03:54:26.711Z,0
2017-04-01T03:55:07.217Z,0
2017-04-01T03:55:47.804Z,0
2017-04-01T03:56:28.440Z,0
2017-04-01T03:57:08.991Z,0
2017-04-01T03:57:49.502Z,0
2017-04-01T03:58:30.027Z,0
2017-04-01T03:59:10.513Z,0
2017-04-01T03:59:51.042Z,0
2017-04-01T04:00:31.555Z,0
2017-04-01T04:01:12.067Z,0
2017-04-01T04:01:52.583Z,0
2017-04-01T04:02:33.100Z,0
2017-04-01T04:03:13.620Z,0
2017-04-01T04:03:54.140Z,0
2017-04-01T04:04:34.663Z,0
2017-04-01T04:05:15.189Z,0
2017-04-01T04:05:55.709Z,0
2017-04-01T04:06:36.200Z,0
2017-04-01T04:07:16.732Z,0
2017-04-01T04:07:57.250Z,0
2017-04-01T04:08:37.770Z,0
2017-04-01T04:09:18.277Z,0
2017-04-01T04:09:58.791Z,0
2017-04-01T04:10:39.301Z,0
2017-04-01T04:11:19.817Z,0
2017-04-01T04:12:00.351Z,0
2017-04-01T04:12:40.882Z,0
2017-04-01T04:13:21.400Z,0
2017-04-01T04:14:01.915Z,0
2017-04-01T04:14:42.426Z,0
2017-04-01T04:15:22.949Z,0
2017-04-01T04:16:03.461Z,0
2017-04-01T04:16:43.974Z,0
2017-04-01T04:17:24.475Z,0
2017-04-01T04:18:05.027Z,0
2017-04-01T04:18:45.533Z,0
2017-04-01T04:19:26.037Z,0
2017-04-01T04:20:06.566Z,0
2017-04-01T04:20:47.086Z,0
2017-04-01T04:21:27.591Z,0
2017-04-01T04:22:08.097Z,0
2017-04-01T04:22:48.606Z,0
2017-04-01T04:23:29.130Z,0
2017-04-01T04:24:09.619Z,0
2017-04-01T04:24:50.152Z,0
2017-04-01T04:25:30.661Z,0
2017-04-01T04:26:11.180Z,0
2017-04-01T04:26:51.700Z,0
2017-04-01T04:27:32.201Z,0
2017-04-01T04:28:12.710Z,0
2017-04-01T04:28:53.240Z,0
2017-04-01T04:29:33.765Z,0
2017-04-01T04:30:14.272Z,0
2017-04-01T04:30:54.785Z,0
2017-04-01T04:31:35.310Z,0
2017-04-01T04:32:15.806Z,0
2017-04-01T04:32:56.329Z,0
2017-04-01T04:33:36.848Z,0
2017-04-01T04:34:17.343Z,0
2017-04-01T04:34:57.861Z,0
2017-04-01T04:35:38.385Z,0
2017-04-01T04:36:18.898Z,0
2017-04-01T04:36:59.407Z,0
2017-04-01T04:37:39.992Z,0
2017-04-01T04:38:20.508Z,0
2017-04-01T04:39:01.017Z,0
2017-04-01T04:39:41.534Z,0
2017-04-01T04:40:22.043Z,0
2017-04-01T04:41:02.565Z,0
2017-04-01T04:41:43.073Z,0
2017-04-01T04:42:23.568Z,0
2017-04-01T04:43:04.089Z,0
2017-04-01T04:43:44.619Z,4
2017-04-01T04:44:25.181Z,4
2017-04-01T04:45:05.672Z,4
2017-04-01T04:45:46.194Z,4
2017-04-01T04:46:26.703Z,4
2017-04-01T04:47:07.218Z,4
2017-04-01T04:47:47.768Z,4
2017-04-01T04:48:28.257Z,4
2017-04-01T04:49:08.782Z,4
2017-04-01T04:49:49.301Z,4
2017-04-01T04:50:29.811Z,8
2017-04-01T04:51:10.319Z,4
2017-04-01T04:51:50.842Z,8
2017-04-01T04:52:31.373Z,8
2017-04-01T04:53:11.893Z,12
2017-04-01T04:53:52.403Z,12
2017-04-01T04:54:32.919Z,12
2017-04-01T04:55:13.414Z,16
2017-04-01T04:55:53.933Z,16
2017-04-01T04:56:34.456Z,20
2017-04-01T04:57:14.963Z,20
2017-04-01T04:57:55.498Z,24
2017-04-01T04:58:36.017Z,28
2017-04-01T04:59:16.525Z,32
2017-04-01T04:59:57.045Z,32
2017-04-01T05:00:37.558Z,36
2017-04-01T05:01:18.074Z,40
2017-04-01T05:01:58.574Z,40
2017-04-01T05:02:39.081Z,40
2017-04-01T05:03:19.593Z,44
2017-04-01T05:04:00.100Z,52
2017-04-01T05:04:40.625Z,52
2017-04-01T05:05:21.136Z,56
2017-04-01T05:06:01.661Z,60
2017-04-01T05:06:42.169Z,64
2017-04-01T05:07:22.668Z,72
2017-04-01T05:08:03.181Z,76
2017-04-01T05:08:43.695Z,84
2017-04-01T05:09:24.221Z,88
2017-04-01T05:10:04.735Z,96
2017-04-01T05:10:45.269Z,108
2017-04-01T05:11:25.798Z,112
2017-04-01T05:12:06.323Z,124
2017-04-01T05:12:46.823Z,124
2017-04-01T05:13:27.329Z,132
2017-04-01T05:14:07.864Z,128
2017-04-01T05:14:48.365Z,128
2017-04-01T05:15:28.896Z,128
2017-04-01T05:16:09.402Z,136
2017-04-01T05:16:49.936Z,144
2017-04-01T05:17:30.463Z,160
2017-04-01T05:18:10.978Z,176
2017-04-01T05:18:51.499Z,188
2017-04-01T05:19:32.019Z,196
2017-04-01T05:20:12.524Z,200
2017-04-01T05:20:53.050Z,220
2017-04-01T05:21:33.574Z,248
2017-04-01T05:22:14.107Z,272
2017-04-01T05:22:54.623Z,292
2017-04-01T05:23:35.142Z,316
2017-04-01T05:24:15.740Z,344
2017-04-01T05:24:56.265Z,372
2017-04-01T05:25:36.760Z,408
2017-04-01T05:26:17.277Z,448
2017-04-01T05:26:57.796Z,480
2017-04-01T05:27:38.323Z,516
2017-04-01T05:28:18.838Z,560
2017-04-01T05:28:59.357Z,596
2017-04-01T05:29:39.879Z,636
2017-04-01T05:30:20.392Z,676
2017-04-01T05:31:00.907Z,708
2017-04-01T05:31:41.455Z,720
2017-04-01T05:32:21.946Z,740
2017-04-01T05:33:02.465Z,748
2017-04-01T05:33:42.972Z,744
2017-04-01T05:34:23.509Z,744
2017-04-01T05:35:04.017Z,736
2017-04-01T05:35:44.531Z,732
2017-04-01T05:36:25.055Z,728
2017-04-01T05:37:05.592Z,700
2017-04-01T05:37:46.114Z,668
2017-04-01T05:38:26.613Z,656
2017-04-01T05:39:07.137Z,672
2017-04-01T05:39:47.640Z,672
2017-04-01T05:40:28.161Z,680
2017-04-01T05:41:08.704Z,696
2017-04-01T05:41:49.196Z,712
2017-04-01T05:42:29.717Z,724
2017-04-01T05:43:10.235Z,736
2017-04-01T05:43:50.781Z,740
2017-04-01T05:44:31.296Z,748
2017-04-01T05:45:11.810Z,756
2017-04-01T05:45:52.317Z,768
2017-04-01T05:46:32.822Z,756
2017-04-01T05:47:13.346Z,748
2017-04-01T05:47:53.869Z,752
2017-04-01T05:48:34.388Z,760
2017-04-01T05:49:14.919Z,776
2017-04-01T05:49:55.450Z,764
2017-04-01T05:50:35.956Z,756
2017-04-01T05:51:16.715Z,752
2017-04-01T05:51:57.390Z,744
2017-04-01T05:52:37.899Z,756
2017-04-01T05:53:18.417Z,772
2017-04-01T05:53:58.949Z,800
2017-04-01T05:54:39.470Z,808
2017-04-01T05:55:19.972Z,788
2017-04-01T05:56:00.498Z,800
2017-04-01T05:56:41.025Z,804
2017-04-01T05:57:21.546Z,808
2017-04-01T05:58:02.060Z,816
2017-04-01T05:58:42.592Z,828
2017-04-01T05:59:23.114Z,844
2017-04-01T06:00:03.627Z,864
2017-04-01T06:00:44.156Z,892
2017-04-01T06:01:24.684Z,912
2017-04-01T06:02:05.197Z,928
2017-04-01T06:02:45.719Z,920
2017-04-01T06:03:26.227Z,912
2017-04-01T06:04:06.735Z,884
2017-04-01T06:04:47.275Z,864
2017-04-01T06:05:27.828Z,876
2017-04-01T06:06:08.301Z,868
2017-04-01T06:06:48.827Z,856
2017-04-01T06:07:29.343Z,848
2017-04-01T06:08:09.842Z,844
2017-04-01T06:08:50.386Z,840
2017-04-01T06:09:30.897Z,840
2017-04-01T06:10:11.426Z,816
2017-04-01T06:10:51.939Z,816
2017-04-01T06:11:32.446Z,812
2017-04-01T06:12:12.948Z,836
2017-04-01T06:12:53.478Z,904
2017-04-01T06:13:33.984Z,932
2017-04-01T06:14:14.481Z,984
2017-04-01T06:14:55.007Z,1068
2017-04-01T06:15:35.515Z,1140
2017-04-01T06:16:16.041Z,1176
2017-04-01T06:16:56.573Z,1220
2017-04-01T06:17:37.095Z,1288
2017-04-01T06:18:17.631Z,1332
2017-04-01T06:18:58.160Z,1372
2017-04-01T06:19:38.677Z,1404
2017-04-01T06:20:19.204Z,1440
2017-04-01T06:20:59.711Z,1488
2017-04-01T06:21:40.230Z,1552
2017-04-01T06:22:20.763Z,1628
2017-04-01T06:23:01.301Z,1704
2017-04-01T06:23:41.825Z,1756
2017-04-01T06:24:22.337Z,1796
2017-04-01T06:25:02.852Z,1800
2017-04-01T06:25:43.375Z,1848
2017-04-01T06:26:23.888Z,1924
2017-04-01T06:27:04.379Z,2028
2017-04-01T06:27:44.888Z,2120
2017-04-01T06:28:25.405Z,2180
2017-04-01T06:29:05.914Z,2200
2017-04-01T06:29:46.420Z,2176
2017-04-01T06:30:26.924Z,2136
2017-04-01T06:31:07.433Z,2108
2017-04-01T06:31:47.986Z,2032
2017-04-01T06:32:28.495Z,1924
2017-04-01T06:33:08.999Z,1896
2017-04-01T06:33:49.502Z,1928
2017-04-01T06:34:30.013Z,1952
2017-04-01T06:35:10.531Z,2024
2017-04-01T06:35:51.070Z,2152
2017-04-01T06:36:31.541Z,2232
2017-04-01T06:37:12.075Z,2260
2017-04-01T06:37:52.590Z,2432
2017-04-01T06:38:33.105Z,2464
2017-04-01T06:39:13.623Z,2496
2017-04-01T06:39:54.136Z,2524
2017-04-01T06:40:34.647Z,2516
2017-04-01T06:41:15.159Z,2500
2017-04-01T06:41:55.676Z,2512
2017-04-01T06:42:36.194Z,2580
2017-04-01T06:43:16.690Z,2664
2017-04-01T06:43:57.201Z,2728
2017-04-01T06:44:37.746Z,2912
2017-04-01T06:45:18.241Z,3136
2017-04-01T06:45:58.751Z,3348
2017-04-01T06:46:39.258Z,3476
2017-04-01T06:47:19.802Z,3404
2017-04-01T06:48:00.355Z,3336
2017-04-01T06:48:40.877Z,3348
2017-04-01T06:49:21.399Z,3384
2017-04-01T06:50:01.961Z,3452
2017-04-01T06:50:42.508Z,3572
2017-04-01T06:51:22.994Z,3712
2017-04-01T06:52:03.536Z,3872
2017-04-01T06:52:44.057Z,3848
2017-04-01T06:53:24.617Z,3600
2017-04-01T06:54:05.204Z,3396
2017-04-01T06:54:45.754Z,3220
2017-04-01T06:55:26.274Z,3096
2017-04-01T06:56:06.802Z,3036
2017-04-01T06:56:47.358Z,3032
2017-04-01T06:59:06.908Z,2724
2017-04-01T06:59:48.386Z,2668
2017-04-01T07:00:29.060Z,2632
2017-04-01T07:01:09.635Z,2688
2017-04-01T07:01:50.101Z,2660
2017-04-01T07:02:30.589Z,2584
2017-04-01T07:03:11.127Z,2544
2017-04-01T07:03:51.630Z,2576
2017-04-01T07:04:32.217Z,2648
2017-04-01T07:05:12.687Z,2696
2017-04-01T07:05:53.205Z,2716
2017-04-01T07:06:33.716Z,2792
2017-04-01T07:07:14.209Z,2912
2017-04-01T07:07:54.702Z,3004
2017-04-01T07:08:35.207Z,3028
2017-04-01T07:09:15.744Z,3040
2017-04-01T07:09:56.234Z,3068
2017-04-01T07:10:36.782Z,3104
2017-04-01T07:11:17.351Z,3120
2017-04-01T07:11:57.906Z,3240
2017-04-01T07:12:38.440Z,3284
2017-04-01T07:13:18.938Z,3380
2017-04-01T07:13:59.444Z,3508
2017-04-01T07:14:39.952Z,3600
2017-04-01T07:15:20.459Z,3708
2017-04-01T07:16:00.956Z,3872
2017-04-01T07:16:41.440Z,4064
2017-04-01T07:17:21.967Z,4220
2017-04-01T07:18:02.545Z,4340
2017-04-01T07:18:43.118Z,4532
2017-04-01T07:19:24.436Z,4808
2017-04-01T07:20:04.982Z,4996
2017-04-01T07:20:45.588Z,4940
2017-04-01T07:21:26.106Z,4908
2017-04-01T07:22:06.733Z,4984
2017-04-01T07:22:47.982Z,4904
2017-04-01T07:23:28.752Z,4800
2017-04-01T07:24:09.294Z,4724
2017-04-01T07:24:49.807Z,4704
2017-04-01T07:25:30.338Z,4380
2017-04-01T07:26:10.883Z,4104
2017-04-01T07:26:51.440Z,3888
2017-04-01T07:27:31.959Z,3824
2017-04-01T07:28:12.448Z,3628
2017-04-01T07:28:52.989Z,3436
2017-04-01T07:29:33.543Z,3420
2017-04-01T07:30:14.068Z,3576
2017-04-01T07:30:54.646Z,3520
2017-04-01T07:31:35.115Z,3408
2017-04-01T07:32:15.602Z,3364
2017-04-01T07:32:56.098Z,3308
2017-04-01T07:33:36.643Z,3224
2017-04-01T07:34:17.164Z,3188
2017-04-01T07:34:57.736Z,3176
2017-04-01T07:35:38.229Z,3128
2017-04-01T07:36:18.740Z,3092
2017-04-01T07:36:59.255Z,3088
2017-04-01T07:37:39.747Z,3144
2017-04-01T07:38:20.292Z,3288
2017-04-01T07:39:00.821Z,3336
2017-04-01T07:39:41.323Z,3276
2017-04-01T07:40:21.857Z,3248
2017-04-01T07:41:02.380Z,3220
2017-04-01T07:41:42.866Z,3168
2017-04-01T07:42:23.390Z,3056
2017-04-01T07:43:03.911Z,2912
2017-04-01T07:43:44.428Z,2896
2017-04-01T07:44:24.955Z,2972
2017-04-01T07:45:05.488Z,2956
2017-04-01T07:45:46.017Z,3024
2017-04-01T07:46:26.496Z,3148
2017-04-01T07:47:07.015Z,3252
2017-04-01T07:47:47.528Z,3284
2017-04-01T07:48:28.053Z,3452
2017-04-01T07:49:08.567Z,3716
2017-04-01T07:49:49.077Z,3852
2017-04-01T07:50:29.600Z,3892
2017-04-01T07:51:10.140Z,4128
2017-04-01T07:51:50.671Z,4484
2017-04-01T07:52:31.164Z,4756
2017-04-01T07:53:11.684Z,5120
2017-04-01T07:53:52.185Z,5448
2017-04-01T07:54:32.704Z,5408
2017-04-01T07:55:13.224Z,5676
2017-04-01T07:55:53.715Z,5868
2017-04-01T07:56:34.251Z,6080
2017-04-01T07:57:14.782Z,6084
2017-04-01T07:57:55.299Z,6264
2017-04-01T07:58:35.810Z,6288
2017-04-01T07:59:16.322Z,6204
2017-04-01T07:59:56.902Z,6164
2017-04-01T08:00:37.384Z,6548
2017-04-01T08:01:17.922Z,6824
2017-04-01T08:01:58.440Z,7072
2017-04-01T08:02:38.954Z,7440
2017-04-01T08:03:19.477Z,7820
2017-04-01T08:04:00.010Z,7572
2017-04-01T08:04:40.537Z,7648
2017-04-01T08:05:21.057Z,7952
2017-04-01T08:06:01.588Z,7868
2017-04-01T08:06:42.120Z,7560
2017-04-01T08:07:22.631Z,7360
2017-04-01T08:08:03.137Z,7448
2017-04-01T08:08:43.666Z,7644
2017-04-01T08:09:24.178Z,7284
2017-04-01T08:10:04.681Z,6956
2017-04-01T08:10:45.199Z,6556
2017-04-01T08:11:25.722Z,6172
2017-04-01T08:12:06.239Z,5644
2017-04-01T08:12:46.748Z,5376
2017-04-01T08:13:27.248Z,5000
2017-04-01T08:14:07.749Z,4916
2017-04-01T08:14:48.285Z,4976
2017-04-01T08:15:28.828Z,4732
2017-04-01T08:16:09.369Z,4560
2017-04-01T08:16:49.891Z,4612
2017-04-01T08:17:30.419Z,4552
2017-04-01T08:18:10.956Z,4804
2017-04-01T08:18:51.500Z,5228
2017-04-01T08:19:32.021Z,5548
2017-04-01T08:20:12.522Z,5612
2017-04-01T08:20:53.061Z,5808
2017-04-01T08:21:33.582Z,6136
2017-04-01T08:22:14.133Z,6444
2017-04-01T08:22:54.668Z,6452
2017-04-01T08:23:35.176Z,6208
2017-04-01T08:24:15.677Z,5968
2017-04-01T08:24:56.181Z,5448
2017-04-01T08:25:36.709Z,5152
2017-04-01T08:26:17.204Z,4788
2017-04-01T08:26:57.735Z,4524
2017-04-01T08:27:38.253Z,4392
2017-04-01T08:28:18.792Z,4112
2017-04-01T08:28:59.284Z,3832
2017-04-01T08:29:39.793Z,3732
2017-04-01T08:30:20.310Z,3772
2017-04-01T08:31:00.840Z,3796
2017-04-01T08:31:41.361Z,3924
2017-04-01T08:32:21.900Z,4064
2017-04-01T08:33:02.433Z,4088
2017-04-01T08:33:42.974Z,4056
2017-04-01T08:34:23.488Z,4044
2017-04-01T08:35:04.038Z,4280
2017-04-01T08:35:44.570Z,4524
2017-04-01T08:36:25.163Z,4516
2017-04-01T08:38:59.743Z,5944
2017-04-01T08:39:40.282Z,6412
2017-04-01T08:40:20.783Z,6324
2017-04-01T08:41:01.295Z,6384
2017-04-01T08:41:41.829Z,6544
2017-04-01T08:42:22.347Z,6912
2017-04-01T08:43:02.852Z,7256
2017-04-01T08:43:43.377Z,7728
2017-04-01T08:44:23.903Z,8188
2017-04-01T08:45:04.388Z,8472
2017-04-01T08:45:44.910Z,8720
2017-04-01T08:46:25.396Z,9292
2017-04-01T08:47:05.947Z,10116
2017-04-01T08:47:46.455Z,10696
2017-04-01T08:48:26.983Z,10788
2017-04-01T08:49:07.473Z,10900
2017-04-01T08:49:47.983Z,10708
2017-04-01T08:50:28.508Z,10128
2017-04-01T08:51:09.074Z,9624
2017-04-01T08:51:49.584Z,9368
2017-04-01T08:52:30.257Z,9020
2017-04-01T08:53:10.797Z,8500
2017-04-01T08:53:51.326Z,8024
2017-04-01T08:54:31.886Z,7260
2017-04-01T08:55:12.418Z,7084
2017-04-01T08:55:52.945Z,6516
2017-04-01T08:56:33.515Z,6028
2017-04-01T08:57:14.043Z,5960
2017-04-01T08:57:54.561Z,5828
2017-04-01T08:58:35.088Z,5556
2017-04-01T08:59:15.606Z,5452
2017-04-01T08:59:56.130Z,5416
2017-04-01T09:00:36.639Z,5296
2017-04-01T09:01:17.180Z,5308
2017-04-01T09:01:57.695Z,5500
2017-04-01T09:02:38.222Z,5804
2017-04-01T09:03:18.756Z,6060
2017-04-01T09:03:59.291Z,6388
2017-04-01T09:04:39.809Z,6976
2017-04-01T09:05:20.316Z,6716
2017-04-01T09:06:00.820Z,6648
2017-04-01T09:06:41.361Z,6480
2017-04-01T09:07:21.908Z,6336
2017-04-01T09:08:02.406Z,6120
2017-04-01T09:08:42.957Z,5896
2017-04-01T09:09:23.503Z,5676
2017-04-01T09:10:04.027Z,5636
2017-04-01T09:10:44.581Z,5648
2017-04-01T09:11:25.108Z,5816
2017-04-01T09:12:05.642Z,6444
2017-04-01T09:12:46.159Z,6876
2017-04-01T09:13:26.711Z,7256
2017-04-01T09:14:07.234Z,7876
2017-04-01T09:14:47.778Z,8684
2017-04-01T09:15:28.307Z,8824
2017-04-01T09:16:08.836Z,9064
2017-04-01T09:16:49.358Z,10404
2017-04-01T09:17:29.878Z,9784
2017-04-01T09:18:10.393Z,9700
2017-04-01T09:18:50.922Z,10776
2017-04-01T09:19:31.467Z,12540
2017-04-01T09:20:11.979Z,10620
2017-04-01T09:20:52.483Z,10928
2017-04-01T09:21:33.045Z,12032
2017-04-01T09:22:13.559Z,16148
2017-04-01T09:22:54.093Z,13424
2017-04-01T09:23:34.597Z,11860
2017-04-01T09:24:15.119Z,11248
2017-04-01T09:24:55.634Z,11236
2017-04-01T09:25:36.187Z,11756
2017-04-01T09:26:16.691Z,12264
2017-04-01T09:26:57.209Z,12232
2017-04-01T09:27:37.727Z,12556
2017-04-01T09:28:18.263Z,12076
2017-04-01T09:28:58.785Z,12404
2017-04-01T09:29:39.317Z,13556
2017-04-01T09:30:19.865Z,13288
2017-04-01T09:31:00.383Z,14648
2017-04-01T09:31:40.906Z,13276
2017-04-01T09:32:21.432Z,13276
2017-04-01T09:33:01.970Z,14612
2017-04-01T09:33:42.484Z,14084
2017-04-01T09:34:22.998Z,18592